sensor_id;sensor_type;location;lat;lon;timestamp;temperature;humidity
43673;DHT22;41723;49.326;8.430;2023-07-20T00:00:39;22.40;91.70
43673;DHT22;41723;49.326;8.430;2023-07-20T00:03:14;22.40;91.60
43673;DHT22;41723;49.326;8.430;2023-07-20T00:05:44;22.40;90.50
43673;DHT22;41723;49.326;8.430;2023-07-20T00:08:10;22.30;90.80
43673;DHT22;41723;49.326;8.430;2023-07-20T00:10:35;22.20;90.40
43673;DHT22;41723;49.326;8.430;2023-07-20T00:13:01;22.30;91.50
43673;DHT22;41723;49.326;8.430;2023-07-20T00:15:27;22.30;90.30
43673;DHT22;41723;49.326;8.430;2023-07-20T00:17:52;22.20;91.70
43673;DHT22;41723;49.326;8.430;2023-07-20T00:20:18;22.20;90.30
43673;DHT22;41723;49.326;8.430;2023-07-20T00:22:43;22.30;91.10
43673;DHT22;41723;49.326;8.430;2023-07-20T00:25:09;22.20;90.80
43673;DHT22;41723;49.326;8.430;2023-07-20T00:27:37;22.20;91.10
43673;DHT22;41723;49.326;8.430;2023-07-20T00:30:03;22.20;91.50
43673;DHT22;41723;49.326;8.430;2023-07-20T00:32:31;22.30;92.80
43673;DHT22;41723;49.326;8.430;2023-07-20T00:34:56;22.20;91.30
43673;DHT22;41723;49.326;8.430;2023-07-20T00:37:22;22.20;91.80
43673;DHT22;41723;49.326;8.430;2023-07-20T00:39:47;22.30;91.80
43673;DHT22;41723;49.326;8.430;2023-07-20T00:42:13;22.20;91.60
43673;DHT22;41723;49.326;8.430;2023-07-20T00:44:38;22.10;91.00
43673;DHT22;41723;49.326;8.430;2023-07-20T00:47:07;22.10;92.70
43673;DHT22;41723;49.326;8.430;2023-07-20T00:55:42;22.10;92.20
43673;DHT22;41723;49.326;8.430;2023-07-20T00:58:07;22.10;92.30
43673;DHT22;41723;49.326;8.430;2023-07-20T01:00:34;22.10;92.10
43673;DHT22;41723;49.326;8.430;2023-07-20T01:02:59;22.20;93.20
43673;DHT22;41723;49.326;8.430;2023-07-20T01:05:30;22.20;93.10
43673;DHT22;41723;49.326;8.430;2023-07-20T01:07:59;22.00;92.10
43673;DHT22;41723;49.326;8.430;2023-07-20T01:10:41;22.10;93.40
43673;DHT22;41723;49.326;8.430;2023-07-20T01:13:09;22.10;92.50
43673;DHT22;41723;49.326;8.430;2023-07-20T01:15:37;21.80;92.60
43673;DHT22;41723;49.326;8.430;2023-07-20T01:18:03;21.80;93.60
43673;DHT22;41723;49.326;8.430;2023-07-20T01:20:30;21.70;92.60
43673;DHT22;41723;49.326;8.430;2023-07-20T01:23:00;21.50;92.80
43673;DHT22;41723;49.326;8.430;2023-07-20T01:33:35;21.70;94.20
43673;DHT22;41723;49.326;8.430;2023-07-20T01:36:01;21.90;94.00
43673;DHT22;41723;49.326;8.430;2023-07-20T01:38:28;21.90;93.10
43673;DHT22;41723;49.326;8.430;2023-07-20T01:40:53;21.80;92.10
43673;DHT22;41723;49.326;8.430;2023-07-20T01:43:20;21.80;93.90
43673;DHT22;41723;49.326;8.430;2023-07-20T01:45:45;21.70;93.90
43673;DHT22;41723;49.326;8.430;2023-07-20T01:48:12;21.60;93.90
43673;DHT22;41723;49.326;8.430;2023-07-20T01:50:38;21.60;93.40
43673;DHT22;41723;49.326;8.430;2023-07-20T01:53:03;21.70;94.30
43673;DHT22;41723;49.326;8.430;2023-07-20T01:55:29;21.70;93.20
43673;DHT22;41723;49.326;8.430;2023-07-20T01:57:55;21.80;94.60
43673;DHT22;41723;49.326;8.430;2023-07-20T02:00:21;21.80;94.10
43673;DHT22;41723;49.326;8.430;2023-07-20T02:02:50;21.70;93.70
43673;DHT22;41723;49.326;8.430;2023-07-20T02:05:16;21.50;94.00
43673;DHT22;41723;49.326;8.430;2023-07-20T02:07:42;21.30;92.90
43673;DHT22;41723;49.326;8.430;2023-07-20T02:10:07;21.20;92.70
43673;DHT22;41723;49.326;8.430;2023-07-20T02:12:34;21.10;93.10
43673;DHT22;41723;49.326;8.430;2023-07-20T02:15:00;21.10;93.30
43673;DHT22;41723;49.326;8.430;2023-07-20T02:17:26;21.10;93.60
43673;DHT22;41723;49.326;8.430;2023-07-20T02:19:55;21.00;93.40
43673;DHT22;41723;49.326;8.430;2023-07-20T02:22:21;20.90;93.30
43673;DHT22;41723;49.326;8.430;2023-07-20T02:24:47;21.00;93.50
43673;DHT22;41723;49.326;8.430;2023-07-20T02:27:13;21.00;93.20
43673;DHT22;41723;49.326;8.430;2023-07-20T02:29:40;21.00;93.30
43673;DHT22;41723;49.326;8.430;2023-07-20T02:32:05;21.00;93.70
43673;DHT22;41723;49.326;8.430;2023-07-20T02:34:31;21.00;93.60
43673;DHT22;41723;49.326;8.430;2023-07-20T02:36:57;20.80;93.90
43673;DHT22;41723;49.326;8.430;2023-07-20T02:39:24;20.90;93.90
43673;DHT22;41723;49.326;8.430;2023-07-20T02:41:50;20.90;93.90
43673;DHT22;41723;49.326;8.430;2023-07-20T02:44:15;20.90;93.70
43673;DHT22;41723;49.326;8.430;2023-07-20T02:46:41;20.70;93.90
43673;DHT22;41723;49.326;8.430;2023-07-20T02:49:06;20.50;94.00
43673;DHT22;41723;49.326;8.430;2023-07-20T02:51:32;20.50;94.10
43673;DHT22;41723;49.326;8.430;2023-07-20T02:53:58;20.50;94.20
43673;DHT22;41723;49.326;8.430;2023-07-20T02:56:24;20.30;94.30
43673;DHT22;41723;49.326;8.430;2023-07-20T02:58:49;20.40;94.70
43673;DHT22;41723;49.326;8.430;2023-07-20T03:01:15;20.30;94.70
43673;DHT22;41723;49.326;8.430;2023-07-20T03:03:44;20.30;95.10
43673;DHT22;41723;49.326;8.430;2023-07-20T03:06:13;20.30;95.00
43673;DHT22;41723;49.326;8.430;2023-07-20T03:08:40;20.30;95.40
43673;DHT22;41723;49.326;8.430;2023-07-20T03:11:07;20.40;95.30
43673;DHT22;41723;49.326;8.430;2023-07-20T03:13:32;20.40;95.50
43673;DHT22;41723;49.326;8.430;2023-07-20T03:16:18;20.60;94.50
43673;DHT22;41723;49.326;8.430;2023-07-20T03:18:44;20.50;95.30
43673;DHT22;41723;49.326;8.430;2023-07-20T03:21:10;20.50;94.60
43673;DHT22;41723;49.326;8.430;2023-07-20T03:23:39;20.50;95.00
43673;DHT22;41723;49.326;8.430;2023-07-20T03:26:05;20.60;94.80
43673;DHT22;41723;49.326;8.430;2023-07-20T03:28:30;20.30;94.80
43673;DHT22;41723;49.326;8.430;2023-07-20T03:30:56;20.30;95.50
43673;DHT22;41723;49.326;8.430;2023-07-20T03:33:24;20.30;95.30
43673;DHT22;41723;49.326;8.430;2023-07-20T03:35:50;20.30;95.30
43673;DHT22;41723;49.326;8.430;2023-07-20T03:38:15;20.40;95.10
43673;DHT22;41723;49.326;8.430;2023-07-20T03:40:48;20.40;95.40
43673;DHT22;41723;49.326;8.430;2023-07-20T03:43:21;20.40;95.20
43673;DHT22;41723;49.326;8.430;2023-07-20T03:45:46;20.50;95.40
43673;DHT22;41723;49.326;8.430;2023-07-20T03:48:16;20.50;95.40
43673;DHT22;41723;49.326;8.430;2023-07-20T03:50:46;20.50;95.20
43673;DHT22;41723;49.326;8.430;2023-07-20T03:53:12;20.40;95.50
43673;DHT22;41723;49.326;8.430;2023-07-20T03:55:38;20.40;95.80
43673;DHT22;41723;49.326;8.430;2023-07-20T03:58:06;20.40;96.10
43673;DHT22;41723;49.326;8.430;2023-07-20T04:00:31;20.30;96.00
43673;DHT22;41723;49.326;8.430;2023-07-20T04:02:57;20.30;96.10
43673;DHT22;41723;49.326;8.430;2023-07-20T04:05:23;20.30;96.10
43673;DHT22;41723;49.326;8.430;2023-07-20T04:07:48;20.30;96.30
43673;DHT22;41723;49.326;8.430;2023-07-20T04:10:14;20.10;96.30
43673;DHT22;41723;49.326;8.430;2023-07-20T04:12:40;20.10;96.60
43673;DHT22;41723;49.326;8.430;2023-07-20T04:15:05;20.00;96.60
43673;DHT22;41723;49.326;8.430;2023-07-20T04:17:32;20.00;96.80
43673;DHT22;41723;49.326;8.430;2023-07-20T04:19:57;20.00;96.70
43673;DHT22;41723;49.326;8.430;2023-07-20T04:22:23;20.00;96.80
43673;DHT22;41723;49.326;8.430;2023-07-20T04:24:48;19.90;96.60
43673;DHT22;41723;49.326;8.430;2023-07-20T04:27:14;19.90;96.60
43673;DHT22;41723;49.326;8.430;2023-07-20T04:29:40;19.70;96.60
43673;DHT22;41723;49.326;8.430;2023-07-20T04:32:06;19.80;96.80
43673;DHT22;41723;49.326;8.430;2023-07-20T04:34:31;19.70;96.80
43673;DHT22;41723;49.326;8.430;2023-07-20T04:36:57;19.80;96.80
43673;DHT22;41723;49.326;8.430;2023-07-20T04:39:24;19.80;96.70
43673;DHT22;41723;49.326;8.430;2023-07-20T04:41:50;19.80;96.80
43673;DHT22;41723;49.326;8.430;2023-07-20T04:44:16;19.80;96.90
43673;DHT22;41723;49.326;8.430;2023-07-20T04:46:42;19.90;96.40
43673;DHT22;41723;49.326;8.430;2023-07-20T04:49:08;20.00;96.60
43673;DHT22;41723;49.326;8.430;2023-07-20T04:51:38;20.00;96.50
43673;DHT22;41723;49.326;8.430;2023-07-20T04:54:03;20.00;96.50
43673;DHT22;41723;49.326;8.430;2023-07-20T04:56:33;19.90;96.70
43673;DHT22;41723;49.326;8.430;2023-07-20T04:59:00;20.00;96.80
43673;DHT22;41723;49.326;8.430;2023-07-20T05:01:25;20.00;96.50
43673;DHT22;41723;49.326;8.430;2023-07-20T05:03:52;20.00;96.60
43673;DHT22;41723;49.326;8.430;2023-07-20T05:06:18;20.00;96.90
43673;DHT22;41723;49.326;8.430;2023-07-20T05:08:44;20.00;96.60
43673;DHT22;41723;49.326;8.430;2023-07-20T05:11:10;19.90;96.60
43673;DHT22;41723;49.326;8.430;2023-07-20T05:13:37;19.80;96.60
43673;DHT22;41723;49.326;8.430;2023-07-20T05:16:02;19.80;96.80
43673;DHT22;41723;49.326;8.430;2023-07-20T05:18:29;19.90;97.00
43673;DHT22;41723;49.326;8.430;2023-07-20T05:20:55;19.90;96.70
43673;DHT22;41723;49.326;8.430;2023-07-20T05:23:20;19.90;96.70
43673;DHT22;41723;49.326;8.430;2023-07-20T05:25:46;19.90;96.60
43673;DHT22;41723;49.326;8.430;2023-07-20T05:28:12;20.00;97.10
43673;DHT22;41723;49.326;8.430;2023-07-20T05:30:38;20.00;96.60
43673;DHT22;41723;49.326;8.430;2023-07-20T05:33:03;20.00;96.60
43673;DHT22;41723;49.326;8.430;2023-07-20T05:35:29;20.00;96.50
43673;DHT22;41723;49.326;8.430;2023-07-20T05:37:55;19.90;96.70
43673;DHT22;41723;49.326;8.430;2023-07-20T05:40:20;20.00;97.10
43673;DHT22;41723;49.326;8.430;2023-07-20T05:42:46;20.00;96.80
43673;DHT22;41723;49.326;8.430;2023-07-20T05:45:13;19.80;97.00
43673;DHT22;41723;49.326;8.430;2023-07-20T05:47:39;19.90;97.10
43673;DHT22;41723;49.326;8.430;2023-07-20T05:50:05;19.90;96.90
43673;DHT22;41723;49.326;8.430;2023-07-20T05:52:30;19.90;97.30
43673;DHT22;41723;49.326;8.430;2023-07-20T05:54:56;20.00;97.00
43673;DHT22;41723;49.326;8.430;2023-07-20T05:57:21;20.10;97.10
43673;DHT22;41723;49.326;8.430;2023-07-20T05:59:47;20.10;97.00
43673;DHT22;41723;49.326;8.430;2023-07-20T06:02:12;20.20;96.90
43673;DHT22;41723;49.326;8.430;2023-07-20T06:04:39;20.20;97.20
43673;DHT22;41723;49.326;8.430;2023-07-20T06:07:05;20.30;96.80
43673;DHT22;41723;49.326;8.430;2023-07-20T06:09:30;20.30;96.80
43673;DHT22;41723;49.326;8.430;2023-07-20T06:11:56;20.40;97.10
43673;DHT22;41723;49.326;8.430;2023-07-20T06:14:22;20.50;96.90
43673;DHT22;41723;49.326;8.430;2023-07-20T06:16:47;20.70;96.40
43673;DHT22;41723;49.326;8.430;2023-07-20T06:19:13;20.70;96.40
43673;DHT22;41723;49.326;8.430;2023-07-20T06:21:39;20.80;96.20
43673;DHT22;41723;49.326;8.430;2023-07-20T06:24:04;20.80;96.60
43673;DHT22;41723;49.326;8.430;2023-07-20T06:26:30;20.70;96.30
43673;DHT22;41723;49.326;8.430;2023-07-20T06:28:56;20.70;96.30
43673;DHT22;41723;49.326;8.430;2023-07-20T06:31:22;20.60;96.70
43673;DHT22;41723;49.326;8.430;2023-07-20T06:33:47;20.70;96.70
43673;DHT22;41723;49.326;8.430;2023-07-20T06:36:13;20.70;96.50
43673;DHT22;41723;49.326;8.430;2023-07-20T06:38:39;20.70;97.00
43673;DHT22;41723;49.326;8.430;2023-07-20T06:41:05;20.80;97.00
43673;DHT22;41723;49.326;8.430;2023-07-20T06:43:30;21.00;96.40
43673;DHT22;41723;49.326;8.430;2023-07-20T06:45:56;21.00;96.30
43673;DHT22;41723;49.326;8.430;2023-07-20T06:48:22;21.10;96.60
43673;DHT22;41723;49.326;8.430;2023-07-20T06:50:47;21.10;96.20
43673;DHT22;41723;49.326;8.430;2023-07-20T06:53:13;21.10;96.00
43673;DHT22;41723;49.326;8.430;2023-07-20T06:55:38;21.20;96.00
43673;DHT22;41723;49.326;8.430;2023-07-20T06:58:04;21.30;96.00
43673;DHT22;41723;49.326;8.430;2023-07-20T07:00:30;21.40;95.90
43673;DHT22;41723;49.326;8.430;2023-07-20T07:02:56;21.30;95.80
43673;DHT22;41723;49.326;8.430;2023-07-20T07:05:21;21.20;95.80
43673;DHT22;41723;49.326;8.430;2023-07-20T07:07:47;21.20;95.90
43673;DHT22;41723;49.326;8.430;2023-07-20T07:10:13;21.30;95.60
43673;DHT22;41723;49.326;8.430;2023-07-20T07:12:39;21.40;95.70
43673;DHT22;41723;49.326;8.430;2023-07-20T07:15:05;21.60;95.70
43673;DHT22;41723;49.326;8.430;2023-07-20T07:17:34;21.70;95.20
43673;DHT22;41723;49.326;8.430;2023-07-20T07:20:00;21.80;95.00
43673;DHT22;41723;49.326;8.430;2023-07-20T07:22:26;22.00;95.10
43673;DHT22;41723;49.326;8.430;2023-07-20T07:24:51;21.90;94.40
43673;DHT22;41723;49.326;8.430;2023-07-20T07:27:17;21.90;94.30
43673;DHT22;41723;49.326;8.430;2023-07-20T07:29:43;22.10;94.40
43673;DHT22;41723;49.326;8.430;2023-07-20T07:32:12;22.20;94.20
43673;DHT22;41723;49.326;8.430;2023-07-20T07:34:38;22.30;94.20
43673;DHT22;41723;49.326;8.430;2023-07-20T07:37:06;22.40;93.60
43673;DHT22;41723;49.326;8.430;2023-07-20T07:39:32;22.50;93.90
43673;DHT22;41723;49.326;8.430;2023-07-20T07:41:58;22.40;93.30
43673;DHT22;41723;49.326;8.430;2023-07-20T07:44:23;22.60;93.10
43673;DHT22;41723;49.326;8.430;2023-07-20T07:46:49;22.40;93.10
43673;DHT22;41723;49.326;8.430;2023-07-20T07:49:18;22.40;92.70
43673;DHT22;41723;49.326;8.430;2023-07-20T07:51:44;22.30;92.60
43673;DHT22;41723;49.326;8.430;2023-07-20T07:54:10;22.50;92.70
43673;DHT22;41723;49.326;8.430;2023-07-20T07:56:36;22.30;93.10
43673;DHT22;41723;49.326;8.430;2023-07-20T07:59:01;22.30;93.30
43673;DHT22;41723;49.326;8.430;2023-07-20T08:01:28;22.30;93.80
43673;DHT22;41723;49.326;8.430;2023-07-20T08:03:54;22.20;93.00
43673;DHT22;41723;49.326;8.430;2023-07-20T08:06:19;22.20;93.20
43673;DHT22;41723;49.326;8.430;2023-07-20T08:08:45;22.10;93.50
43673;DHT22;41723;49.326;8.430;2023-07-20T08:11:10;22.20;93.20
43673;DHT22;41723;49.326;8.430;2023-07-20T08:13:36;22.20;93.00
43673;DHT22;41723;49.326;8.430;2023-07-20T08:16:02;22.30;94.10
43673;DHT22;41723;49.326;8.430;2023-07-20T08:18:28;22.40;92.70
43673;DHT22;41723;49.326;8.430;2023-07-20T08:20:53;22.60;92.90
43673;DHT22;41723;49.326;8.430;2023-07-20T08:23:19;22.70;92.60
43673;DHT22;41723;49.326;8.430;2023-07-20T08:25:45;22.90;92.60
43673;DHT22;41723;49.326;8.430;2023-07-20T08:28:14;22.80;92.70
43673;DHT22;41723;49.326;8.430;2023-07-20T08:30:44;22.80;92.40
43673;DHT22;41723;49.326;8.430;2023-07-20T08:33:10;22.80;91.90
43673;DHT22;41723;49.326;8.430;2023-07-20T08:35:36;22.70;92.30
43673;DHT22;41723;49.326;8.430;2023-07-20T08:38:02;22.70;92.10
43673;DHT22;41723;49.326;8.430;2023-07-20T08:40:27;22.50;92.00
43673;DHT22;41723;49.326;8.430;2023-07-20T08:42:54;22.40;92.20
43673;DHT22;41723;49.326;8.430;2023-07-20T08:45:20;22.30;92.40
43673;DHT22;41723;49.326;8.430;2023-07-20T08:47:47;22.40;92.30
43673;DHT22;41723;49.326;8.430;2023-07-20T08:50:14;22.50;92.20
43673;DHT22;41723;49.326;8.430;2023-07-20T08:52:40;22.60;92.00
43673;DHT22;41723;49.326;8.430;2023-07-20T08:55:06;22.70;91.60
43673;DHT22;41723;49.326;8.430;2023-07-20T08:57:32;22.50;92.20
43673;DHT22;41723;49.326;8.430;2023-07-20T08:59:58;22.50;92.00
43673;DHT22;41723;49.326;8.430;2023-07-20T09:02:24;22.60;92.30
43673;DHT22;41723;49.326;8.430;2023-07-20T09:04:52;22.60;91.90
43673;DHT22;41723;49.326;8.430;2023-07-20T09:07:17;22.60;92.10
43673;DHT22;41723;49.326;8.430;2023-07-20T09:09:45;22.80;91.90
43673;DHT22;41723;49.326;8.430;2023-07-20T09:12:14;22.90;91.50
43673;DHT22;41723;49.326;8.430;2023-07-20T09:14:44;23.00;91.30
43673;DHT22;41723;49.326;8.430;2023-07-20T09:17:13;23.10;91.50
43673;DHT22;41723;49.326;8.430;2023-07-20T09:19:45;23.20;91.40
43673;DHT22;41723;49.326;8.430;2023-07-20T09:22:10;23.20;91.10
43673;DHT22;41723;49.326;8.430;2023-07-20T09:24:36;23.30;90.80
43673;DHT22;41723;49.326;8.430;2023-07-20T09:27:02;23.10;91.10
43673;DHT22;41723;49.326;8.430;2023-07-20T09:29:30;23.10;91.40
43673;DHT22;41723;49.326;8.430;2023-07-20T09:31:58;23.20;91.20
43673;DHT22;41723;49.326;8.430;2023-07-20T09:34:24;23.30;91.10
43673;DHT22;41723;49.326;8.430;2023-07-20T09:36:49;23.20;90.90
43673;DHT22;41723;49.326;8.430;2023-07-20T09:39:16;23.30;90.50
43673;DHT22;41723;49.326;8.430;2023-07-20T09:41:42;23.30;90.60
43673;DHT22;41723;49.326;8.430;2023-07-20T09:44:08;23.40;90.50
43673;DHT22;41723;49.326;8.430;2023-07-20T09:46:43;23.30;90.50
43673;DHT22;41723;49.326;8.430;2023-07-20T09:49:08;23.30;90.40
43673;DHT22;41723;49.326;8.430;2023-07-20T09:51:34;23.30;90.30
43673;DHT22;41723;49.326;8.430;2023-07-20T09:54:00;23.20;90.40
43673;DHT22;41723;49.326;8.430;2023-07-20T09:56:26;23.20;90.60
43673;DHT22;41723;49.326;8.430;2023-07-20T09:58:52;23.20;90.50
43673;DHT22;41723;49.326;8.430;2023-07-20T10:01:18;23.10;90.30
43673;DHT22;41723;49.326;8.430;2023-07-20T10:03:45;23.10;90.50
43673;DHT22;41723;49.326;8.430;2023-07-20T10:06:12;23.10;90.70
43673;DHT22;41723;49.326;8.430;2023-07-20T10:08:40;23.20;90.50
43673;DHT22;41723;49.326;8.430;2023-07-20T10:11:06;23.10;90.80
43673;DHT22;41723;49.326;8.430;2023-07-20T10:13:32;23.30;90.20
43673;DHT22;41723;49.326;8.430;2023-07-20T10:16:03;23.60;90.40
43673;DHT22;41723;49.326;8.430;2023-07-20T10:20:58;24.20;89.40
43673;DHT22;41723;49.326;8.430;2023-07-20T10:23:25;24.00;89.00
43673;DHT22;41723;49.326;8.430;2023-07-20T10:25:51;24.00;89.00
43673;DHT22;41723;49.326;8.430;2023-07-20T10:28:17;23.90;89.30
43673;DHT22;41723;49.326;8.430;2023-07-20T10:30:43;24.00;90.00
43673;DHT22;41723;49.326;8.430;2023-07-20T10:33:09;23.90;89.10
43673;DHT22;41723;49.326;8.430;2023-07-20T10:35:54;23.80;89.50
43673;DHT22;41723;49.326;8.430;2023-07-20T10:38:20;23.60;88.10
43673;DHT22;41723;49.326;8.430;2023-07-20T10:40:55;23.50;88.10
43673;DHT22;41723;49.326;8.430;2023-07-20T10:43:21;23.50;88.90
43673;DHT22;41723;49.326;8.430;2023-07-20T10:45:51;23.50;89.40
43673;DHT22;41723;49.326;8.430;2023-07-20T10:48:18;23.50;89.20
43673;DHT22;41723;49.326;8.430;2023-07-20T10:50:45;23.70;88.90
43673;DHT22;41723;49.326;8.430;2023-07-20T10:53:14;23.80;89.30
43673;DHT22;41723;49.326;8.430;2023-07-20T10:55:41;23.90;88.70
43673;DHT22;41723;49.326;8.430;2023-07-20T11:00:34;23.90;88.30
43673;DHT22;41723;49.326;8.430;2023-07-20T11:02:59;23.80;87.70
43673;DHT22;41723;49.326;8.430;2023-07-20T11:05:35;23.70;88.60
43673;DHT22;41723;49.326;8.430;2023-07-20T11:08:04;23.80;88.20
43673;DHT22;41723;49.326;8.430;2023-07-20T11:10:30;23.80;88.10
43673;DHT22;41723;49.326;8.430;2023-07-20T11:15:44;24.00;89.60
43673;DHT22;41723;49.326;8.430;2023-07-20T11:18:11;23.80;89.70
43673;DHT22;41723;49.326;8.430;2023-07-20T11:20:37;24.00;89.60
43673;DHT22;41723;49.326;8.430;2023-07-20T11:23:02;24.00;89.00
43673;DHT22;41723;49.326;8.430;2023-07-20T11:25:35;24.00;89.30
43673;DHT22;41723;49.326;8.430;2023-07-20T11:28:01;24.10;89.50
43673;DHT22;41723;49.326;8.430;2023-07-20T11:30:26;24.10;88.90
43673;DHT22;41723;49.326;8.430;2023-07-20T11:32:52;24.20;89.10
43673;DHT22;41723;49.326;8.430;2023-07-20T11:35:18;24.20;89.30
43673;DHT22;41723;49.326;8.430;2023-07-20T11:37:43;24.50;88.40
43673;DHT22;41723;49.326;8.430;2023-07-20T11:40:09;24.70;88.90
43673;DHT22;41723;49.326;8.430;2023-07-20T11:42:35;24.90;88.70
43673;DHT22;41723;49.326;8.430;2023-07-20T11:45:03;25.20;87.40
43673;DHT22;41723;49.326;8.430;2023-07-20T11:47:30;25.50;87.10
43673;DHT22;41723;49.326;8.430;2023-07-20T11:49:56;25.80;87.20
43673;DHT22;41723;49.326;8.430;2023-07-20T11:52:28;25.80;84.70
43673;DHT22;41723;49.326;8.430;2023-07-20T11:54:53;25.80;85.10
43673;DHT22;41723;49.326;8.430;2023-07-20T11:57:19;26.00;84.30
43673;DHT22;41723;49.326;8.430;2023-07-20T11:59:58;26.20;84.20
43673;DHT22;41723;49.326;8.430;2023-07-20T12:02:30;26.30;84.10
43673;DHT22;41723;49.326;8.430;2023-07-20T12:04:56;26.30;83.10
43673;DHT22;41723;49.326;8.430;2023-07-20T12:07:22;26.50;83.10
43673;DHT22;41723;49.326;8.430;2023-07-20T12:10:07;26.70;82.70
43673;DHT22;41723;49.326;8.430;2023-07-20T12:12:33;26.90;81.90
43673;DHT22;41723;49.326;8.430;2023-07-20T12:15:15;26.40;81.30
43673;DHT22;41723;49.326;8.430;2023-07-20T12:17:44;26.60;81.70
43673;DHT22;41723;49.326;8.430;2023-07-20T12:20:10;26.80;81.80
43673;DHT22;41723;49.326;8.430;2023-07-20T12:22:39;26.90;81.40
43673;DHT22;41723;49.326;8.430;2023-07-20T12:25:06;27.20;81.30
43673;DHT22;41723;49.326;8.430;2023-07-20T12:27:33;27.40;81.50
43673;DHT22;41723;49.326;8.430;2023-07-20T12:29:58;27.20;79.70
43673;DHT22;41723;49.326;8.430;2023-07-20T12:32:24;27.30;79.80
43673;DHT22;41723;49.326;8.430;2023-07-20T12:34:49;27.00;79.90
43673;DHT22;41723;49.326;8.430;2023-07-20T12:37:17;27.10;79.80
43673;DHT22;41723;49.326;8.430;2023-07-20T12:39:43;27.00;78.30
43673;DHT22;41723;49.326;8.430;2023-07-20T12:42:12;26.70;78.70
43673;DHT22;41723;49.326;8.430;2023-07-20T12:44:40;26.20;79.30
43673;DHT22;41723;49.326;8.430;2023-07-20T12:47:06;26.30;80.20
43673;DHT22;41723;49.326;8.430;2023-07-20T12:49:31;26.20;79.30
43673;DHT22;41723;49.326;8.430;2023-07-20T12:51:57;26.40;80.20
43673;DHT22;41723;49.326;8.430;2023-07-20T12:54:23;26.50;78.70
43673;DHT22;41723;49.326;8.430;2023-07-20T12:56:48;26.80;78.90
43673;DHT22;41723;49.326;8.430;2023-07-20T12:59:14;27.00;79.20
43673;DHT22;41723;49.326;8.430;2023-07-20T13:01:40;26.90;76.60
43673;DHT22;41723;49.326;8.430;2023-07-20T13:04:07;27.00;77.70
43673;DHT22;41723;49.326;8.430;2023-07-20T13:06:34;26.80;76.60
43673;DHT22;41723;49.326;8.430;2023-07-20T13:09:00;26.50;77.30
43673;DHT22;41723;49.326;8.430;2023-07-20T13:11:26;26.50;78.50
43673;DHT22;41723;49.326;8.430;2023-07-20T13:13:51;26.30;77.70
43673;DHT22;41723;49.326;8.430;2023-07-20T13:16:17;26.30;77.40
43673;DHT22;41723;49.326;8.430;2023-07-20T13:18:43;26.30;77.80
43673;DHT22;41723;49.326;8.430;2023-07-20T13:21:08;26.20;77.90
43673;DHT22;41723;49.326;8.430;2023-07-20T13:23:36;26.10;77.40
43673;DHT22;41723;49.326;8.430;2023-07-20T13:26:02;26.10;77.80
43673;DHT22;41723;49.326;8.430;2023-07-20T13:28:28;26.10;77.90
43673;DHT22;41723;49.326;8.430;2023-07-20T13:30:54;26.00;77.30
43673;DHT22;41723;49.326;8.430;2023-07-20T13:33:20;26.00;77.70
43673;DHT22;41723;49.326;8.430;2023-07-20T13:35:45;26.00;77.00
43673;DHT22;41723;49.326;8.430;2023-07-20T13:38:12;25.70;75.90
43673;DHT22;41723;49.326;8.430;2023-07-20T13:40:38;25.70;76.20
43673;DHT22;41723;49.326;8.430;2023-07-20T13:43:03;25.60;76.70
43673;DHT22;41723;49.326;8.430;2023-07-20T13:45:29;25.60;76.20
43673;DHT22;41723;49.326;8.430;2023-07-20T13:47:54;25.60;76.70
43673;DHT22;41723;49.326;8.430;2023-07-20T13:50:20;25.70;75.90
43673;DHT22;41723;49.326;8.430;2023-07-20T13:52:46;25.70;76.00
43673;DHT22;41723;49.326;8.430;2023-07-20T13:55:12;25.80;75.10
43673;DHT22;41723;49.326;8.430;2023-07-20T13:57:38;26.10;75.90
43673;DHT22;41723;49.326;8.430;2023-07-20T14:00:03;26.20;75.50
43673;DHT22;41723;49.326;8.430;2023-07-20T14:02:37;26.20;74.90
43673;DHT22;41723;49.326;8.430;2023-07-20T14:05:03;26.20;76.30
43673;DHT22;41723;49.326;8.430;2023-07-20T14:07:28;26.50;75.50
43673;DHT22;41723;49.326;8.430;2023-07-20T14:09:54;26.60;75.50
43673;DHT22;41723;49.326;8.430;2023-07-20T14:12:19;26.60;75.20
43673;DHT22;41723;49.326;8.430;2023-07-20T14:14:45;26.70;74.40
43673;DHT22;41723;49.326;8.430;2023-07-20T14:17:11;26.70;75.90
43673;DHT22;41723;49.326;8.430;2023-07-20T14:19:37;26.80;76.60
43673;DHT22;41723;49.326;8.430;2023-07-20T14:22:02;26.80;75.00
43673;DHT22;41723;49.326;8.430;2023-07-20T14:24:29;26.80;74.60
43673;DHT22;41723;49.326;8.430;2023-07-20T14:26:54;26.80;73.60
43673;DHT22;41723;49.326;8.430;2023-07-20T14:29:20;26.70;73.90
43673;DHT22;41723;49.326;8.430;2023-07-20T14:31:46;26.70;73.10
43673;DHT22;41723;49.326;8.430;2023-07-20T14:34:16;26.80;73.10
43673;DHT22;41723;49.326;8.430;2023-07-20T14:36:42;26.90;72.30
43673;DHT22;41723;49.326;8.430;2023-07-20T14:39:07;27.00;72.60
43673;DHT22;41723;49.326;8.430;2023-07-20T14:41:33;27.00;72.90
43673;DHT22;41723;49.326;8.430;2023-07-20T14:43:58;26.90;72.10
43673;DHT22;41723;49.326;8.430;2023-07-20T14:46:24;27.10;70.80
43673;DHT22;41723;49.326;8.430;2023-07-20T14:48:50;26.90;71.40
43673;DHT22;41723;49.326;8.430;2023-07-20T14:51:17;26.90;71.60
43673;DHT22;41723;49.326;8.430;2023-07-20T14:53:43;26.80;72.30
43673;DHT22;41723;49.326;8.430;2023-07-20T14:56:08;26.70;71.70
43673;DHT22;41723;49.326;8.430;2023-07-20T14:58:34;26.70;71.40
43673;DHT22;41723;49.326;8.430;2023-07-20T15:01:00;26.60;72.30
43673;DHT22;41723;49.326;8.430;2023-07-20T15:03:25;26.70;71.30
43673;DHT22;41723;49.326;8.430;2023-07-20T15:05:51;26.60;69.80
43673;DHT22;41723;49.326;8.430;2023-07-20T15:08:17;26.50;70.10
43673;DHT22;41723;49.326;8.430;2023-07-20T15:10:44;26.50;70.70
43673;DHT22;41723;49.326;8.430;2023-07-20T15:13:11;26.50;70.40
43673;DHT22;41723;49.326;8.430;2023-07-20T15:15:36;26.50;70.00
43673;DHT22;41723;49.326;8.430;2023-07-20T15:18:02;26.40;69.60
43673;DHT22;41723;49.326;8.430;2023-07-20T15:20:28;26.30;70.40
43673;DHT22;41723;49.326;8.430;2023-07-20T15:22:57;26.30;70.20
43673;DHT22;41723;49.326;8.430;2023-07-20T15:25:22;26.30;70.50
43673;DHT22;41723;49.326;8.430;2023-07-20T15:27:48;26.30;69.80
43673;DHT22;41723;49.326;8.430;2023-07-20T15:30:14;26.30;69.60
43673;DHT22;41723;49.326;8.430;2023-07-20T15:32:40;26.30;69.00
43673;DHT22;41723;49.326;8.430;2023-07-20T15:35:09;26.40;69.90
43673;DHT22;41723;49.326;8.430;2023-07-20T15:37:34;26.40;68.60
43673;DHT22;41723;49.326;8.430;2023-07-20T15:40:02;26.40;69.40
43673;DHT22;41723;49.326;8.430;2023-07-20T15:42:30;26.50;70.10
43673;DHT22;41723;49.326;8.430;2023-07-20T15:44:56;26.50;70.80
43673;DHT22;41723;49.326;8.430;2023-07-20T15:47:21;26.50;71.20